Time;durP1;ratioP1;P1;durP2;ratioP2;P2;SDS_P1;SDS_P2;PMS_P1;PMS_P2;Temp;Humidity;BMP_temperature;BMP_pressure;BME280_temperature;BME280_humidity;BME280_pressure;Samples;Min_cycle;Max_cycle;Signal;HPM_P1;HPM_P2
2024/04/16 00:01:12;;;;;;;9.15;0.90;;;;;;;;;;5299012;26;95947;-49
2024/04/16 00:03:39;;;;;;;12.43;1.25;;;;;;;;;;5298919;26;96241;-49
2024/04/16 00:06:04;;;;;;;9.55;0.70;;;;;;;;;;5293918;26;95780;-49
2024/04/16 00:08:29;;;;;;;16.80;2.08;;;;;;;;;;5278790;26;96058;-48
2024/04/16 00:11:04;;;;;;;11.98;1.25;;;;;;;;;;5301809;26;97776;-49
2024/04/16 00:13:29;;;;;;;10.73;0.70;;;;;;;;;;5296408;26;95991;-50
2024/04/16 00:15:54;;;;;;;14.52;1.35;;;;;;;;;;5296445;26;95965;-50
2024/04/16 00:18:20;;;;;;;11.88;1.23;;;;;;;;;;5294779;26;95867;-50
2024/04/16 00:20:45;;;;;;;19.02;0.90;;;;;;;;;;5297397;26;97612;-49
2024/04/16 00:23:10;;;;;;;14.52;0.95;;;;;;;;;;5297367;26;98579;-50
2024/04/16 00:25:36;;;;;;;13.35;0.90;;;;;;;;;;5299646;26;95858;-49
2024/04/16 00:28:01;;;;;;;11.63;0.98;;;;;;;;;;5299282;26;96935;-50
2024/04/16 00:30:26;;;;;;;9.45;1.35;;;;;;;;;;5298160;26;96741;-50
2024/04/16 00:32:52;;;;;;;10.35;1.05;;;;;;;;;;5301728;26;95654;-49
2024/04/16 00:35:17;;;;;;;19.38;2.08;;;;;;;;;;5297014;26;95973;-54
2024/04/16 00:37:42;;;;;;;13.82;0.95;;;;;;;;;;5298255;26;95835;-54
2024/04/16 00:40:08;;;;;;;10.20;1.60;;;;;;;;;;5294271;26;96131;-50
2024/04/16 00:42:33;;;;;;;11.73;1.10;;;;;;;;;;5297447;26;97579;-48
2024/04/16 00:44:59;;;;;;;11.13;1.25;;;;;;;;;;5287673;26;95776;-50
2024/04/16 00:47:24;;;;;;;9.00;1.00;;;;;;;;;;5298464;26;96142;-50
2024/04/16 00:49:51;;;;;;;14.38;1.23;;;;;;;;;;5297015;26;95923;-50
2024/04/16 00:52:17;;;;;;;11.30;1.30;;;;;;;;;;5297182;26;95745;-49
2024/04/16 00:54:43;;;;;;;11.35;1.63;;;;;;;;;;5294238;26;96217;-49
2024/04/16 00:57:08;;;;;;;12.60;1.45;;;;;;;;;;5292971;26;98054;-49
2024/04/16 00:59:34;;;;;;;17.75;1.73;;;;;;;;;;5182598;26;100379;-50
2024/04/16 01:01:59;;;;;;;11.25;1.23;;;;;;;;;;5295743;26;96548;-49
2024/04/16 01:04:25;;;;;;;12.27;1.50;;;;;;;;;;5298997;26;95861;-49
2024/04/16 01:06:51;;;;;;;15.98;1.85;;;;;;;;;;5299875;26;96117;-49
2024/04/16 01:09:18;;;;;;;13.73;1.58;;;;;;;;;;5299198;26;96637;-49
2024/04/16 01:11:46;;;;;;;11.50;1.17;;;;;;;;;;5300203;26;95463;-50
2024/04/16 01:14:11;;;;;;;13.73;1.75;;;;;;;;;;5297781;26;96031;-49
2024/04/16 01:16:37;;;;;;;21.83;2.33;;;;;;;;;;5288726;26;96785;-49
2024/04/16 01:19:02;;;;;;;18.00;2.58;;;;;;;;;;5294508;26;97304;-49
2024/04/16 01:21:28;;;;;;;22.50;1.17;;;;;;;;;;5298627;26;96070;-49
2024/04/16 01:23:53;;;;;;;14.75;1.30;;;;;;;;;;5291020;26;96486;-49
2024/04/16 01:26:18;;;;;;;15.82;1.08;;;;;;;;;;5297422;26;96005;-53
2024/04/16 01:28:44;;;;;;;16.52;1.10;;;;;;;;;;5296635;26;99564;-54
2024/04/16 01:31:09;;;;;;;16.70;2.00;;;;;;;;;;5296582;26;98133;-48
2024/04/16 01:33:35;;;;;;;13.70;1.13;;;;;;;;;;5297460;26;95932;-49
2024/04/16 01:36:00;;;;;;;17.42;1.70;;;;;;;;;;5295408;26;96250;-49
2024/04/16 01:38:25;;;;;;;12.55;1.60;;;;;;;;;;5296406;26;97703;-50
2024/04/16 01:40:51;;;;;;;14.30;1.73;;;;;;;;;;5268263;26;97135;-54
2024/04/16 01:43:16;;;;;;;13.18;1.40;;;;;;;;;;5298359;26;95826;-54
2024/04/16 01:45:41;;;;;;;17.85;1.70;;;;;;;;;;5294504;26;96069;-50
2024/04/16 01:48:07;;;;;;;16.55;1.65;;;;;;;;;;5294899;26;97089;-49
2024/04/16 01:50:33;;;;;;;16.20;1.77;;;;;;;;;;5296860;26;95803;-48
2024/04/16 01:52:58;;;;;;;16.45;1.73;;;;;;;;;;5295714;26;95998;-49
2024/04/16 01:55:24;;;;;;;15.02;1.80;;;;;;;;;;5291585;26;96585;-49
2024/04/16 01:57:50;;;;;;;16.20;1.20;;;;;;;;;;5300026;26;96004;-49
2024/04/16 02:00:15;;;;;;;12.50;1.13;;;;;;;;;;5291815;26;95942;-48
2024/04/16 02:02:41;;;;;;;13.13;1.13;;;;;;;;;;5262692;26;95663;-50
2024/04/16 02:05:06;;;;;;;17.17;1.75;;;;;;;;;;5288140;26;96856;-51
2024/04/16 02:07:32;;;;;;;14.20;1.15;;;;;;;;;;5290162;26;97852;-48
2024/04/16 02:09:57;;;;;;;13.23;1.73;;;;;;;;;;5287915;26;97167;-50
2024/04/16 02:12:23;;;;;;;10.50;1.88;;;;;;;;;;5287857;26;96079;-49
2024/04/16 02:14:51;;;;;;;12.13;1.02;;;;;;;;;;5289674;26;97564;-50
2024/04/16 02:17:18;;;;;;;13.30;1.10;;;;;;;;;;5290358;26;96979;-49
2024/04/16 02:19:44;;;;;;;16.10;1.27;;;;;;;;;;5291969;26;98670;-49
2024/04/16 02:22:10;;;;;;;12.07;1.40;;;;;;;;;;5287022;26;95895;-50
2024/04/16 02:24:35;;;;;;;15.23;1.65;;;;;;;;;;5291324;26;98821;-50
2024/04/16 02:27:00;;;;;;;15.85;1.98;;;;;;;;;;5288045;26;98621;-50
2024/04/16 02:29:27;;;;;;;13.65;1.48;;;;;;;;;;5290893;26;95926;-49
2024/04/16 02:31:52;;;;;;;10.68;0.95;;;;;;;;;;5288623;26;97663;-49
2024/04/16 02:34:18;;;;;;;12.73;1.23;;;;;;;;;;5289344;26;98974;-50
2024/04/16 02:36:43;;;;;;;16.23;1.98;;;;;;;;;;5287394;26;96200;-51
2024/04/16 02:39:09;;;;;;;11.52;0.90;;;;;;;;;;5291158;26;97956;-50
2024/04/16 02:41:34;;;;;;;14.57;1.25;;;;;;;;;;5291009;26;99016;-48
2024/04/16 02:44:00;;;;;;;17.05;1.80;;;;;;;;;;5290025;26;97402;-48
2024/04/16 02:46:25;;;;;;;13.07;1.02;;;;;;;;;;5290222;26;96099;-49
2024/04/16 02:48:50;;;;;;;11.45;0.85;;;;;;;;;;5293359;26;96564;-49
2024/04/16 02:51:17;;;;;;;14.07;2.00;;;;;;;;;;5292886;26;96055;-48
2024/04/16 02:53:42;;;;;;;8.20;0.80;;;;;;;;;;5290073;26;96083;-49
2024/04/16 02:56:07;;;;;;;12.70;1.33;;;;;;;;;;5289897;26;98124;-49
2024/04/16 02:58:33;;;;;;;10.52;1.20;;;;;;;;;;5299731;26;96099;-49
2024/04/16 03:01:04;;;;;;;10.98;1.33;;;;;;;;;;5291954;26;96022;-50
2024/04/16 03:03:32;;;;;;;15.68;2.13;;;;;;;;;;5296732;26;95861;-50
2024/04/16 03:05:57;;;;;;;12.68;1.52;;;;;;;;;;5292301;26;96187;-47
2024/04/16 03:08:23;;;;;;;12.50;1.10;;;;;;;;;;5286819;26;95596;-50
2024/04/16 03:10:48;;;;;;;13.75;1.23;;;;;;;;;;5290382;26;98546;-50
2024/04/16 03:13:14;;;;;;;8.00;1.00;;;;;;;;;;5286568;26;96135;-50
2024/04/16 03:15:39;;;;;;;11.65;1.08;;;;;;;;;;5286978;26;97955;-50
2024/04/16 03:18:04;;;;;;;11.05;1.02;;;;;;;;;;5269790;26;98219;-48
2024/04/16 03:20:30;;;;;;;10.23;1.35;;;;;;;;;;5290941;26;95909;-54
2024/04/16 03:22:55;;;;;;;12.60;0.80;;;;;;;;;;5291439;26;96124;-54
2024/04/16 03:25:22;;;;;;;12.75;0.77;;;;;;;;;;5293137;26;98294;-49
2024/04/16 03:27:47;;;;;;;6.38;0.65;;;;;;;;;;5288614;26;96018;-51
2024/04/16 03:30:13;;;;;;;12.63;1.25;;;;;;;;;;5289173;26;98381;-54
2024/04/16 03:32:38;;;;;;;12.02;0.80;;;;;;;;;;5287142;26;98353;-53
2024/04/16 03:35:04;;;;;;;9.45;0.80;;;;;;;;;;5297230;26;97499;-49
2024/04/16 03:37:29;;;;;;;9.95;0.70;;;;;;;;;;5298536;26;96059;-50
2024/04/16 03:39:55;;;;;;;12.30;1.35;;;;;;;;;;5295789;26;97399;-49
2024/04/16 03:42:20;;;;;;;13.68;0.95;;;;;;;;;;5298207;26;96343;-50
2024/04/16 03:44:45;;;;;;;8.13;0.68;;;;;;;;;;5293863;26;96083;-50
2024/04/16 03:47:11;;;;;;;12.65;1.15;;;;;;;;;;5287585;26;95926;-49
2024/04/16 03:49:36;;;;;;;11.55;0.90;;;;;;;;;;5291683;26;96193;-50
2024/04/16 03:52:01;;;;;;;9.23;0.80;;;;;;;;;;5292199;26;97450;-51
2024/04/16 03:54:27;;;;;;;10.45;0.82;;;;;;;;;;5292979;26;96082;-50
2024/04/16 03:56:52;;;;;;;7.65;1.52;;;;;;;;;;5198896;26;100310;-49
2024/04/16 03:59:37;;;;;;;14.63;1.38;;;;;;;;;;5296942;26;97881;-49
2024/04/16 04:02:03;;;;;;;12.60;1.42;;;;;;;;;;5290717;26;98255;-50
2024/04/16 04:04:28;;;;;;;15.55;1.67;;;;;;;;;;5286296;26;95952;-51
2024/04/16 04:06:53;;;;;;;9.05;0.60;;;;;;;;;;5296591;26;97341;-51
2024/04/16 04:09:19;;;;;;;10.68;1.40;;;;;;;;;;5292048;26;96597;-50
2024/04/16 04:11:44;;;;;;;10.00;1.00;;;;;;;;;;5289215;26;97444;-50
2024/04/16 04:14:09;;;;;;;14.82;1.52;;;;;;;;;;5290364;26;95622;-51
2024/04/16 04:16:35;;;;;;;12.65;0.80;;;;;;;;;;5294671;26;98990;-52
2024/04/16 04:19:00;;;;;;;10.05;1.05;;;;;;;;;;5292096;26;98769;-51
2024/04/16 04:21:25;;;;;;;12.32;1.08;;;;;;;;;;5288549;26;95960;-51
2024/04/16 04:23:51;;;;;;;15.07;1.23;;;;;;;;;;5290116;26;98086;-52
2024/04/16 04:26:16;;;;;;;15.63;1.10;;;;;;;;;;5288170;26;97626;-50
2024/04/16 04:28:41;;;;;;;8.07;0.85;;;;;;;;;;5292426;26;97286;-49
2024/04/16 04:31:18;;;;;;;14.45;2.22;;;;;;;;;;5265244;26;101092;-51
2024/04/16 04:33:43;;;;;;;14.40;1.15;;;;;;;;;;5292550;26;97142;-51
2024/04/16 04:36:11;;;;;;;11.45;1.13;;;;;;;;;;5292198;26;98348;-50
2024/04/16 04:38:37;;;;;;;17.20;1.85;;;;;;;;;;5292114;26;96021;-51
2024/04/16 04:41:02;;;;;;;13.07;1.92;;;;;;;;;;5293615;26;95937;-50
2024/04/16 04:43:28;;;;;;;12.07;1.75;;;;;;;;;;5290512;26;98613;-52
2024/04/16 04:45:53;;;;;;;12.68;1.10;;;;;;;;;;5291127;26;98229;-52
2024/04/16 04:48:18;;;;;;;12.77;1.00;;;;;;;;;;5294167;26;95960;-51
2024/04/16 04:50:43;;;;;;;15.27;1.40;;;;;;;;;;5293466;26;100424;-51
2024/04/16 04:53:09;;;;;;;13.07;1.40;;;;;;;;;;5293809;26;95964;-49
2024/04/16 04:55:34;;;;;;;13.60;1.92;;;;;;;;;;5289672;26;97957;-49
2024/04/16 04:58:00;;;;;;;12.73;1.38;;;;;;;;;;5288769;26;99313;-49
2024/04/16 05:00:26;;;;;;;16.33;1.20;;;;;;;;;;5286910;26;98913;-52
2024/04/16 05:02:51;;;;;;;15.77;2.10;;;;;;;;;;5293555;26;97454;-50
2024/04/16 05:05:16;;;;;;;12.35;1.20;;;;;;;;;;5292877;26;96508;-51
2024/04/16 05:07:42;;;;;;;10.88;1.02;;;;;;;;;;5292244;26;96905;-50
2024/04/16 05:10:08;;;;;;;12.02;1.17;;;;;;;;;;5292091;26;96026;-52
2024/04/16 05:12:34;;;;;;;11.85;1.00;;;;;;;;;;5295176;26;96071;-49
2024/04/16 05:14:59;;;;;;;10.77;1.10;;;;;;;;;;5291722;26;95995;-51
2024/04/16 05:17:25;;;;;;;9.82;1.35;;;;;;;;;;5284638;26;97757;-51
2024/04/16 05:19:51;;;;;;;12.00;1.73;;;;;;;;;;5293204;26;95792;-51
2024/04/16 05:22:16;;;;;;;15.55;1.30;;;;;;;;;;5294990;26;97577;-51
2024/04/16 05:24:41;;;;;;;15.10;1.98;;;;;;;;;;5293627;26;97353;-52
2024/04/16 05:27:07;;;;;;;10.90;0.98;;;;;;;;;;5296470;26;96491;-49
2024/04/16 05:29:32;;;;;;;14.50;1.73;;;;;;;;;;5293863;26;97498;-52
2024/04/16 05:31:58;;;;;;;11.32;1.23;;;;;;;;;;5294481;26;98580;-51
2024/04/16 05:34:23;;;;;;;18.35;1.70;;;;;;;;;;5299810;26;95848;-50
2024/04/16 05:36:48;;;;;;;12.27;1.45;;;;;;;;;;5294144;26;96087;-51
2024/04/16 05:39:14;;;;;;;14.57;1.63;;;;;;;;;;5296701;26;97088;-55
2024/04/16 05:41:40;;;;;;;11.23;1.02;;;;;;;;;;5296247;26;96102;-54
2024/04/16 05:44:06;;;;;;;13.30;1.90;;;;;;;;;;5296738;26;96019;-52
2024/04/16 05:46:31;;;;;;;11.18;1.42;;;;;;;;;;5286445;26;96266;-54
2024/04/16 05:48:58;;;;;;;13.63;1.00;;;;;;;;;;5291018;26;96573;-55
2024/04/16 05:51:23;;;;;;;13.00;1.40;;;;;;;;;;5292439;26;97124;-51
2024/04/16 05:53:48;;;;;;;11.63;1.33;;;;;;;;;;5297908;26;95931;-51
2024/04/16 05:56:14;;;;;;;15.82;1.65;;;;;;;;;;5294184;26;99927;-51
2024/04/16 05:58:39;;;;;;;14.23;1.60;;;;;;;;;;5290636;26;98168;-51
2024/04/16 06:01:05;;;;;;;16.77;1.48;;;;;;;;;;5291543;26;97368;-52
2024/04/16 06:03:31;;;;;;;13.77;2.08;;;;;;;;;;5292758;26;95878;-52
2024/04/16 06:05:56;;;;;;;13.23;1.00;;;;;;;;;;5294554;26;97304;-52
2024/04/16 06:08:22;;;;;;;15.60;1.27;;;;;;;;;;5205654;26;100121;-50
2024/04/16 06:10:47;;;;;;;14.05;1.35;;;;;;;;;;5295725;26;97772;-52
2024/04/16 06:13:12;;;;;;;17.50;1.60;;;;;;;;;;5296049;26;97212;-52
2024/04/16 06:15:38;;;;;;;9.05;0.70;;;;;;;;;;5298313;26;96097;-54
2024/04/16 06:18:09;;;;;;;15.77;1.45;;;;;;;;;;5293571;26;97469;-54
2024/04/16 06:20:34;;;;;;;10.02;1.05;;;;;;;;;;5287317;26;97430;-51
2024/04/16 06:23:00;;;;;;;11.55;1.30;;;;;;;;;;5294988;26;98456;-50
2024/04/16 06:25:25;;;;;;;14.98;1.35;;;;;;;;;;5296756;26;95931;-55
2024/04/16 06:27:51;;;;;;;15.55;1.67;;;;;;;;;;5296608;26;96017;-55
2024/04/16 06:30:17;;;;;;;10.98;1.02;;;;;;;;;;5298506;26;96624;-51
2024/04/16 06:32:42;;;;;;;10.63;1.17;;;;;;;;;;5298865;26;95574;-50
2024/04/16 06:35:07;;;;;;;10.68;1.27;;;;;;;;;;5298984;26;97198;-54
2024/04/16 06:37:32;;;;;;;11.00;1.20;;;;;;;;;;5302357;26;96120;-54
2024/04/16 06:39:58;;;;;;;12.30;1.25;;;;;;;;;;5298047;26;96088;-54
2024/04/16 06:42:24;;;;;;;14.02;1.48;;;;;;;;;;5298413;26;97495;-54
2024/04/16 06:44:50;;;;;;;12.00;1.23;;;;;;;;;;5297999;26;95800;-51
2024/04/16 06:47:15;;;;;;;10.23;1.73;;;;;;;;;;5299297;26;97641;-51
2024/04/16 06:49:40;;;;;;;11.15;1.05;;;;;;;;;;5298864;26;96010;-50
2024/04/16 06:52:08;;;;;;;10.85;1.05;;;;;;;;;;5298729;26;95465;-51
2024/04/16 06:54:33;;;;;;;14.60;1.40;;;;;;;;;;5291689;26;96007;-50
2024/04/16 06:56:58;;;;;;;15.75;1.20;;;;;;;;;;5297210;26;96684;-49
2024/04/16 06:59:24;;;;;;;10.82;1.00;;;;;;;;;;5301570;26;95602;-49
2024/04/16 07:01:49;;;;;;;13.57;1.20;;;;;;;;;;5295774;26;96233;-49
2024/04/16 07:04:14;;;;;;;12.68;1.42;;;;;;;;;;5298775;26;95515;-49
2024/04/16 07:06:41;;;;;;;14.57;1.60;;;;;;;;;;5313590;26;97274;-55
2024/04/16 07:09:06;;;;;;;13.85;1.08;;;;;;;;;;5297119;26;96093;-55
2024/04/16 07:11:32;;;;;;;16.95;1.42;;;;;;;;;;5284175;26;97403;-55
2024/04/16 07:13:57;;;;;;;14.50;1.45;;;;;;;;;;5292551;26;96824;-54
2024/04/16 07:16:22;;;;;;;14.55;1.17;;;;;;;;;;5295384;26;95843;-54
2024/04/16 07:18:47;;;;;;;16.30;1.58;;;;;;;;;;5290446;26;95734;-55
2024/04/16 07:21:13;;;;;;;13.85;1.17;;;;;;;;;;5300986;26;95975;-54
2024/04/16 07:23:38;;;;;;;14.20;1.20;;;;;;;;;;5297737;26;96074;-53
2024/04/16 07:26:03;;;;;;;15.32;1.02;;;;;;;;;;5297164;26;96345;-54
2024/04/16 07:28:29;;;;;;;15.38;1.13;;;;;;;;;;5279445;26;97298;-53
2024/04/16 07:30:54;;;;;;;16.27;1.60;;;;;;;;;;5295746;26;95639;-53
2024/04/16 07:33:21;;;;;;;21.17;2.00;;;;;;;;;;5294777;26;95978;-59
2024/04/16 07:35:46;;;;;;;20.00;1.33;;;;;;;;;;5296658;26;96771;-56
2024/04/16 07:38:14;;;;;;;18.05;1.73;;;;;;;;;;5294541;26;96014;-55
2024/04/16 07:40:40;;;;;;;15.75;1.75;;;;;;;;;;5296316;26;95983;-54
2024/04/16 07:43:06;;;;;;;10.27;1.42;;;;;;;;;;5294916;26;97337;-53
2024/04/16 07:45:31;;;;;;;13.27;1.08;;;;;;;;;;5294938;26;98905;-55
2024/04/16 07:47:56;;;;;;;10.02;1.13;;;;;;;;;;5293886;26;98588;-55
2024/04/16 07:50:22;;;;;;;14.43;1.52;;;;;;;;;;5296433;26;96665;-56
2024/04/16 07:52:47;;;;;;;16.17;1.77;;;;;;;;;;5310682;26;98403;-55
2024/04/16 07:55:12;;;;;;;11.73;1.08;;;;;;;;;;5297005;26;95902;-54
2024/04/16 07:57:38;;;;;;;16.50;1.30;;;;;;;;;;5295840;26;96083;-57
2024/04/16 08:00:03;;;;;;;20.20;1.95;;;;;;;;;;5290542;26;96073;-55
2024/04/16 08:02:29;;;;;;;9.65;0.80;;;;;;;;;;5220645;26;96092;-54
2024/04/16 08:04:54;;;;;;;14.25;0.95;;;;;;;;;;5265685;26;96053;-54
2024/04/16 08:07:19;;;;;;;14.82;1.35;;;;;;;;;;5243571;26;96103;-57
2024/04/16 08:09:46;;;;;;;16.48;2.10;;;;;;;;;;5270214;26;95792;-54
2024/04/16 08:12:11;;;;;;;11.07;1.10;;;;;;;;;;5246527;26;97190;-55
2024/04/16 08:14:36;;;;;;;17.42;1.50;;;;;;;;;;5265026;26;95948;-57
2024/04/16 08:17:02;;;;;;;13.65;1.67;;;;;;;;;;5263602;26;95597;-54
2024/04/16 08:19:27;;;;;;;11.18;1.15;;;;;;;;;;5255118;26;97126;-51
2024/04/16 08:21:52;;;;;;;19.30;1.40;;;;;;;;;;5262634;26;97578;-53
2024/04/16 08:24:18;;;;;;;14.73;1.15;;;;;;;;;;5267908;26;95579;-54
2024/04/16 08:26:43;;;;;;;10.80;0.80;;;;;;;;;;5246008;26;96047;-55
2024/04/16 08:29:08;;;;;;;11.85;1.13;;;;;;;;;;5259394;26;95769;-54
2024/04/16 08:31:34;;;;;;;20.55;1.27;;;;;;;;;;5263151;26;98674;-56
2024/04/16 08:34:01;;;;;;;13.75;1.45;;;;;;;;;;5262258;26;98787;-53
2024/04/16 08:36:27;;;;;;;14.50;1.08;;;;;;;;;;5259798;26;97397;-55
2024/04/16 08:38:52;;;;;;;16.83;1.52;;;;;;;;;;5263553;26;95949;-53
2024/04/16 08:41:18;;;;;;;10.00;1.20;;;;;;;;;;5255273;26;96011;-54
2024/04/16 08:43:44;;;;;;;14.82;2.47;;;;;;;;;;5261306;26;97579;-54
2024/04/16 08:46:12;;;;;;;19.75;3.72;;;;;;;;;;5266521;26;96197;-53
2024/04/16 08:48:39;;;;;;;16.33;2.00;;;;;;;;;;5261585;26;95998;-57
2024/04/16 08:51:08;;;;;;;13.77;0.98;;;;;;;;;;5263899;26;96043;-52
2024/04/16 08:53:35;;;;;;;9.77;0.70;;;;;;;;;;5252563;26;96475;-52
2024/04/16 08:56:01;;;;;;;8.75;0.88;;;;;;;;;;5264621;26;95530;-52
2024/04/16 08:58:27;;;;;;;11.88;1.25;;;;;;;;;;5261828;26;97313;-52
2024/04/16 09:00:53;;;;;;;14.55;1.08;;;;;;;;;;5263255;26;96745;-58
2024/04/16 09:03:20;;;;;;;17.52;1.15;;;;;;;;;;5255692;26;95535;-54
2024/04/16 09:05:46;;;;;;;9.88;1.58;;;;;;;;;;5264050;26;96115;-53
2024/04/16 09:08:12;;;;;;;12.57;0.88;;;;;;;;;;5240453;26;96034;-52
2024/04/16 09:10:37;;;;;;;10.30;1.38;;;;;;;;;;5249000;26;102862;-53
2024/04/16 09:13:12;;;;;;;13.60;0.98;;;;;;;;;;5260506;26;96779;-54
2024/04/16 09:15:39;;;;;;;8.95;0.95;;;;;;;;;;5264107;26;96009;-53
2024/04/16 09:18:05;;;;;;;7.80;0.77;;;;;;;;;;5263600;26;97005;-54
2024/04/16 09:20:30;;;;;;;14.20;1.00;;;;;;;;;;5265845;26;96158;-53
2024/04/16 09:22:56;;;;;;;9.05;0.77;;;;;;;;;;5265101;26;97102;-54
2024/04/16 09:25:22;;;;;;;9.23;0.98;;;;;;;;;;5256303;26;96065;-51
2024/04/16 09:27:49;;;;;;;6.30;0.60;;;;;;;;;;5263186;26;96125;-50
2024/04/16 09:30:15;;;;;;;12.80;1.00;;;;;;;;;;5264463;26;95540;-52
2024/04/16 09:32:44;;;;;;;9.30;2.47;;;;;;;;;;5264316;26;96086;-54
2024/04/16 09:35:10;;;;;;;6.23;0.50;;;;;;;;;;5265122;26;96003;-56
2024/04/16 09:37:35;;;;;;;11.43;0.70;;;;;;;;;;5265289;26;96101;-56
2024/04/16 09:40:01;;;;;;;9.85;0.57;;;;;;;;;;5262425;26;96053;-55
2024/04/16 09:42:27;;;;;;;8.30;1.02;;;;;;;;;;5264746;26;95523;-54
2024/04/16 09:44:54;;;;;;;8.20;0.60;;;;;;;;;;5262091;26;96086;-55
2024/04/16 09:47:22;;;;;;;6.85;0.77;;;;;;;;;;5261216;26;96115;-54
2024/04/16 09:49:50;;;;;;;10.93;0.47;;;;;;;;;;5266892;26;95723;-56
2024/04/16 09:52:17;;;;;;;9.05;0.70;;;;;;;;;;5263670;26;95461;-55
2024/04/16 09:54:48;;;;;;;9.40;0.65;;;;;;;;;;5262979;26;97328;-58
2024/04/16 09:57:14;;;;;;;7.13;0.50;;;;;;;;;;5256155;26;96097;-56
2024/04/16 09:59:43;;;;;;;6.22;0.57;;;;;;;;;;5262357;26;95981;-56
2024/04/16 10:02:09;;;;;;;12.30;1.23;;;;;;;;;;5260138;26;95560;-58
2024/04/16 10:04:35;;;;;;;5.25;1.05;;;;;;;;;;5258363;26;98829;-54
2024/04/16 10:07:01;;;;;;;5.88;0.50;;;;;;;;;;5257246;26;97200;-55
2024/04/16 10:09:27;;;;;;;4.80;0.75;;;;;;;;;;5261330;26;96053;-55
2024/04/16 10:11:52;;;;;;;4.05;0.30;;;;;;;;;;5264539;26;96087;-54
2024/04/16 10:14:18;;;;;;;6.55;0.40;;;;;;;;;;5261596;26;95858;-54
2024/04/16 10:16:44;;;;;;;8.38;0.70;;;;;;;;;;5248366;26;96142;-54
2024/04/16 10:19:09;;;;;;;8.25;0.75;;;;;;;;;;5252764;26;96725;-54
2024/04/16 10:21:39;;;;;;;8.65;1.60;;;;;;;;;;5261232;26;96260;-56
2024/04/16 10:24:09;;;;;;;8.18;0.50;;;;;;;;;;5257460;26;96301;-55
2024/04/16 10:26:39;;;;;;;5.78;0.30;;;;;;;;;;5256418;26;96115;-54
2024/04/16 10:29:32;;;;;;;8.45;0.73;;;;;;;;;;5254114;26;96999;-55
2024/04/16 10:32:01;;;;;;;4.45;0.40;;;;;;;;;;5253733;26;96070;-54
2024/04/16 10:34:27;;;;;;;5.47;0.30;;;;;;;;;;5256701;26;96092;-55
2024/04/16 10:36:54;;;;;;;8.90;1.70;;;;;;;;;;5253343;26;97201;-55
2024/04/16 10:39:33;;;;;;;7.93;0.43;;;;;;;;;;5261057;26;96172;-55
2024/04/16 10:42:01;;;;;;;4.25;0.40;;;;;;;;;;5256863;26;95834;-54
2024/04/16 10:44:27;;;;;;;10.65;1.65;;;;;;;;;;5248900;26;95997;-55
2024/04/16 10:46:53;;;;;;;8.82;0.70;;;;;;;;;;5259779;26;96194;-55
2024/04/16 10:49:22;;;;;;;3.08;0.30;;;;;;;;;;5259513;26;96231;-55
2024/04/16 10:51:51;;;;;;;6.63;0.70;;;;;;;;;;5252295;26;96051;-55
2024/04/16 10:54:16;;;;;;;4.57;0.50;;;;;;;;;;5256497;26;95973;-55
2024/04/16 10:56:42;;;;;;;8.30;1.08;;;;;;;;;;5257845;26;96010;-54
2024/04/16 10:59:09;;;;;;;7.70;0.40;;;;;;;;;;5253566;26;97776;-55
2024/04/16 11:01:41;;;;;;;6.43;0.98;;;;;;;;;;5257958;26;96631;-55
2024/04/16 11:04:10;;;;;;;5.90;0.40;;;;;;;;;;5257073;26;96196;-55
2024/04/16 11:06:35;;;;;;;6.38;0.55;;;;;;;;;;5251173;26;97005;-55
2024/04/16 11:09:03;;;;;;;4.20;0.30;;;;;;;;;;5260633;26;95982;-55
2024/04/16 11:11:29;;;;;;;4.15;0.63;;;;;;;;;;5258950;26;97144;-55
2024/04/16 11:13:54;;;;;;;8.55;0.52;;;;;;;;;;5256817;26;97236;-55
2024/04/16 11:16:21;;;;;;;4.43;0.50;;;;;;;;;;5258397;26;95607;-55
2024/04/16 11:18:47;;;;;;;6.75;0.52;;;;;;;;;;5265273;26;96044;-56
2024/04/16 11:21:13;;;;;;;5.68;0.35;;;;;;;;;;5261822;26;97733;-55
2024/04/16 11:23:39;;;;;;;2.00;0.20;;;;;;;;;;5260232;26;97781;-55
2024/04/16 11:26:04;;;;;;;5.75;0.25;;;;;;;;;;5258372;26;97935;-55
2024/04/16 11:28:30;;;;;;;8.90;0.45;;;;;;;;;;5258110;26;95885;-54
2024/04/16 11:30:56;;;;;;;4.35;0.40;;;;;;;;;;5262517;26;97520;-51
2024/04/16 11:33:23;;;;;;;3.85;0.30;;;;;;;;;;5263143;26;95979;-50
2024/04/16 11:35:48;;;;;;;3.67;0.30;;;;;;;;;;5262374;26;96052;-56
2024/04/16 11:38:18;;;;;;;3.42;0.20;;;;;;;;;;5263191;26;97097;-55
2024/04/16 11:40:43;;;;;;;6.75;0.30;;;;;;;;;;5264649;26;95917;-55
2024/04/16 11:43:08;;;;;;;6.88;0.45;;;;;;;;;;5259898;26;101322;-55
2024/04/16 11:45:34;;;;;;;4.43;0.40;;;;;;;;;;5258170;26;98199;-51
2024/04/16 11:48:00;;;;;;;5.00;0.82;;;;;;;;;;5257974;26;97821;-50
2024/04/16 11:50:25;;;;;;;9.40;0.80;;;;;;;;;;5264223;26;96019;-54
2024/04/16 11:52:51;;;;;;;4.63;0.50;;;;;;;;;;5261708;26;96135;-55
2024/04/16 11:55:16;;;;;;;9.00;0.40;;;;;;;;;;5260978;26;96071;-55
2024/04/16 11:57:41;;;;;;;5.18;0.65;;;;;;;;;;5261371;26;97070;-54
2024/04/16 12:00:07;;;;;;;2.95;0.20;;;;;;;;;;5264737;26;96005;-55
2024/04/16 12:02:32;;;;;;;4.70;0.30;;;;;;;;;;5256856;26;96372;-54
2024/04/16 12:04:58;;;;;;;4.57;0.20;;;;;;;;;;5256121;26;96089;-54
2024/04/16 12:07:23;;;;;;;3.97;0.30;;;;;;;;;;5265380;26;95928;-54
2024/04/16 12:09:48;;;;;;;4.50;0.40;;;;;;;;;;5264425;26;96062;-55
2024/04/16 12:12:14;;;;;;;5.45;0.40;;;;;;;;;;5295405;26;98780;-54
2024/04/16 12:14:39;;;;;;;4.15;0.50;;;;;;;;;;5263173;26;95975;-54
2024/04/16 12:17:04;;;;;;;4.07;0.43;;;;;;;;;;5256576;26;97300;-54
2024/04/16 12:19:30;;;;;;;2.72;0.40;;;;;;;;;;5263899;26;96013;-54
2024/04/16 12:21:55;;;;;;;5.50;0.30;;;;;;;;;;5257041;26;96013;-54
2024/04/16 12:24:21;;;;;;;2.38;0.28;;;;;;;;;;5258192;26;96127;-55
2024/04/16 12:26:46;;;;;;;3.30;0.30;;;;;;;;;;5264831;26;95819;-54
2024/04/16 12:29:12;;;;;;;3.45;0.20;;;;;;;;;;5265102;26;95990;-54
2024/04/16 12:31:37;;;;;;;3.72;0.20;;;;;;;;;;5263221;26;96120;-51
2024/04/16 12:34:03;;;;;;;2.90;0.30;;;;;;;;;;5262533;26;95996;-51
2024/04/16 12:36:28;;;;;;;3.33;1.00;;;;;;;;;;5264889;26;96034;-54
2024/04/16 12:38:54;;;;;;;4.45;0.50;;;;;;;;;;5260600;26;96152;-52
2024/04/16 12:41:19;;;;;;;5.55;0.40;;;;;;;;;;5256990;26;96089;-53
2024/04/16 12:43:44;;;;;;;7.13;0.40;;;;;;;;;;5262729;26;96988;-54
2024/04/16 12:46:10;;;;;;;6.30;1.58;;;;;;;;;;5261435;26;99035;-54
2024/04/16 12:48:35;;;;;;;3.80;0.30;;;;;;;;;;5262510;26;95996;-53
2024/04/16 12:51:00;;;;;;;5.95;0.28;;;;;;;;;;5261121;26;96006;-51
2024/04/16 12:53:26;;;;;;;6.47;0.60;;;;;;;;;;5259110;26;96602;-52
2024/04/16 12:55:51;;;;;;;3.92;0.32;;;;;;;;;;5264199;26;96164;-54
2024/04/16 12:58:16;;;;;;;7.35;0.38;;;;;;;;;;5263983;26;95996;-53
2024/04/16 13:00:42;;;;;;;5.25;0.45;;;;;;;;;;5260286;26;95740;-53
2024/04/16 13:03:10;;;;;;;3.85;0.20;;;;;;;;;;5248970;26;95967;-53
2024/04/16 13:05:36;;;;;;;2.72;0.20;;;;;;;;;;5265605;26;97281;-53
2024/04/16 13:08:03;;;;;;;3.60;0.50;;;;;;;;;;5253263;26;96334;-54
2024/04/16 13:10:29;;;;;;;1.60;0.17;;;;;;;;;;5263197;26;96113;-53
2024/04/16 13:12:54;;;;;;;3.15;0.30;;;;;;;;;;5259238;26;97178;-52
2024/04/16 13:15:20;;;;;;;4.45;0.93;;;;;;;;;;5277643;26;96089;-53
2024/04/16 13:17:46;;;;;;;5.13;1.77;;;;;;;;;;5256480;26;96177;-54
2024/04/16 13:20:11;;;;;;;4.88;0.57;;;;;;;;;;5261587;26;97293;-54
2024/04/16 13:22:37;;;;;;;1.95;0.40;;;;;;;;;;5261523;26;96416;-53
2024/04/16 13:25:03;;;;;;;2.78;0.43;;;;;;;;;;5256974;26;96176;-54
2024/04/16 13:27:28;;;;;;;3.72;0.45;;;;;;;;;;5260054;26;97429;-53
2024/04/16 13:29:54;;;;;;;8.93;1.42;;;;;;;;;;5259574;26;96121;-53
2024/04/16 13:32:19;;;;;;;5.97;0.40;;;;;;;;;;5249428;26;97141;-54
2024/04/16 13:34:44;;;;;;;7.40;0.50;;;;;;;;;;5240897;26;97725;-53
2024/04/16 13:37:10;;;;;;;8.15;1.27;;;;;;;;;;5264625;26;97869;-53
2024/04/16 13:39:35;;;;;;;5.55;0.40;;;;;;;;;;5263842;26;96148;-53
2024/04/16 13:42:00;;;;;;;6.75;0.30;;;;;;;;;;5250134;26;98069;-52
2024/04/16 13:44:26;;;;;;;4.93;0.20;;;;;;;;;;5255594;26;95983;-53
2024/04/16 13:46:51;;;;;;;2.13;0.20;;;;;;;;;;5253618;26;96055;-52
2024/04/16 13:49:17;;;;;;;3.17;0.20;;;;;;;;;;5267417;26;95927;-51
2024/04/16 13:51:42;;;;;;;1.42;0.30;;;;;;;;;;5263577;26;96023;-51
2024/04/16 13:54:07;;;;;;;6.28;0.30;;;;;;;;;;5263127;26;96002;-51
2024/04/16 13:56:32;;;;;;;4.75;0.25;;;;;;;;;;5261651;26;95986;-51
2024/04/16 13:59:01;;;;;;;3.20;0.35;;;;;;;;;;5253405;26;97784;-51
2024/04/16 14:01:26;;;;;;;2.03;0.30;;;;;;;;;;5249853;26;96283;-51
2024/04/16 14:03:52;;;;;;;4.20;0.40;;;;;;;;;;5259286;26;97273;-51
2024/04/16 14:06:17;;;;;;;3.83;0.30;;;;;;;;;;5262252;26;95884;-51
2024/04/16 14:08:42;;;;;;;2.13;0.40;;;;;;;;;;5264779;26;96106;-51
2024/04/16 14:11:08;;;;;;;3.30;0.38;;;;;;;;;;5239537;26;95676;-51
2024/04/16 14:13:33;;;;;;;6.82;0.60;;;;;;;;;;5253664;26;96153;-51
2024/04/16 14:15:59;;;;;;;1.75;0.30;;;;;;;;;;5278543;26;97271;-52
2024/04/16 14:18:24;;;;;;;5.18;0.40;;;;;;;;;;5273226;26;96955;-51
2024/04/16 14:20:50;;;;;;;7.50;0.40;;;;;;;;;;5239671;26;96047;-51
2024/04/16 14:23:15;;;;;;;6.70;0.50;;;;;;;;;;5246541;26;97950;-51
2024/04/16 14:25:40;;;;;;;5.95;0.70;;;;;;;;;;5260431;26;95765;-52
2024/04/16 14:28:06;;;;;;;3.60;0.25;;;;;;;;;;5263403;26;96110;-51